createdAt,value
2023-02-27T00:00:51.900Z,1015.92
2023-02-27T00:01:51.894Z,1015.93
2023-02-27T00:02:51.965Z,1015.94
2023-02-27T00:03:51.934Z,1015.95
2023-02-27T00:04:51.837Z,1015.95
2023-02-27T00:05:51.836Z,1015.96
2023-02-27T00:06:51.833Z,1015.96
2023-02-27T00:07:51.844Z,1015.95
2023-02-27T00:08:51.862Z,1015.95
2023-02-27T00:09:51.819Z,1015.95
2023-02-27T00:10:51.772Z,1015.96
2023-02-27T00:11:51.800Z,1015.95
2023-02-27T00:12:51.778Z,1015.94
2023-02-27T00:13:51.801Z,1015.93
2023-02-27T00:14:51.737Z,1015.91
2023-02-27T00:15:51.845Z,1015.91
2023-02-27T00:16:51.714Z,1015.91
2023-02-27T00:17:51.739Z,1015.92
2023-02-27T00:18:51.725Z,1015.92
2023-02-27T00:19:51.697Z,1015.92
2023-02-27T00:20:51.698Z,1015.92
2023-02-27T00:21:51.676Z,1015.92
2023-02-27T00:22:51.682Z,1015.91
2023-02-27T00:23:51.642Z,1015.90
2023-02-27T00:24:51.629Z,1015.90
2023-02-27T00:25:51.667Z,1015.89
2023-02-27T00:26:51.618Z,1015.90
2023-02-27T00:27:51.624Z,1015.89
2023-02-27T00:28:51.627Z,1015.89
2023-02-27T00:29:51.615Z,1015.89
2023-02-27T00:30:51.617Z,1015.89
2023-02-27T00:31:51.743Z,1015.88
2023-02-27T00:32:51.551Z,1015.89
2023-02-27T00:33:51.549Z,1015.90
2023-02-27T00:34:51.559Z,1015.91
2023-02-27T00:35:51.528Z,1015.92
2023-02-27T00:36:51.518Z,1015.93
2023-02-27T00:37:51.521Z,1015.95
2023-02-27T00:38:51.515Z,1015.94
2023-02-27T00:39:51.492Z,1015.96
2023-02-27T00:40:51.474Z,1015.96
2023-02-27T00:41:51.474Z,1015.96
2023-02-27T00:42:51.443Z,1015.96
2023-02-27T00:43:51.459Z,1015.95
2023-02-27T00:44:51.433Z,1015.95
2023-02-27T00:45:51.443Z,1015.94
2023-02-27T00:46:51.534Z,1015.93
2023-02-27T00:47:51.407Z,1015.91
2023-02-27T00:48:51.386Z,1015.90
2023-02-27T00:49:51.386Z,1015.90
2023-02-27T00:50:51.384Z,1015.90
2023-02-27T00:51:51.402Z,1015.91
2023-02-27T00:52:51.343Z,1015.91
2023-02-27T00:53:51.370Z,1015.90
2023-02-27T00:54:51.321Z,1015.90
2023-02-27T00:55:51.332Z,1015.91
2023-02-27T00:56:51.309Z,1015.92
2023-02-27T00:57:51.378Z,1015.92
2023-02-27T00:58:51.287Z,1015.92
2023-02-27T00:59:51.285Z,1015.94
2023-02-27T01:00:51.303Z,1015.94
2023-02-27T01:01:51.291Z,1015.95
2023-02-27T01:02:51.307Z,1015.95
2023-02-27T01:03:51.242Z,1015.94
2023-02-27T01:04:51.215Z,1015.94
2023-02-27T01:05:51.239Z,1015.93
2023-02-27T01:06:51.227Z,1015.94
2023-02-27T01:07:51.213Z,1015.95
2023-02-27T01:08:51.189Z,1015.95
2023-02-27T01:09:51.188Z,1015.95
2023-02-27T01:10:51.167Z,1015.95
2023-02-27T01:11:51.189Z,1015.95
2023-02-27T01:12:51.165Z,1015.94
2023-02-27T01:13:51.162Z,1015.93
2023-02-27T01:14:51.148Z,1015.93
2023-02-27T01:15:51.114Z,1015.92
2023-02-27T01:16:51.123Z,1015.91
2023-02-27T01:17:51.109Z,1015.90
2023-02-27T01:18:51.094Z,1015.88
2023-02-27T01:19:51.096Z,1015.86
2023-02-27T01:20:51.082Z,1015.85
2023-02-27T01:21:51.071Z,1015.84
2023-02-27T01:22:51.060Z,1015.85
2023-02-27T01:23:51.048Z,1015.84
2023-02-27T01:24:51.061Z,1015.84
2023-02-27T01:25:51.037Z,1015.83
2023-02-27T01:26:51.040Z,1015.83
2023-02-27T01:27:51.003Z,1015.82
2023-02-27T01:28:50.992Z,1015.83
2023-02-27T01:29:51.005Z,1015.83
2023-02-27T01:30:51.062Z,1015.83
2023-02-27T01:31:51.086Z,1015.84
2023-02-27T01:32:50.968Z,1015.86
2023-02-27T01:33:50.978Z,1015.87
2023-02-27T01:34:50.927Z,1015.86
2023-02-27T01:35:50.942Z,1015.86
2023-02-27T01:36:50.914Z,1015.85
2023-02-27T01:37:50.909Z,1015.84
2023-02-27T01:38:50.916Z,1015.85
2023-02-27T01:39:50.889Z,1015.84
2023-02-27T01:40:50.888Z,1015.82
2023-02-27T01:41:50.922Z,1015.81
2023-02-27T01:42:50.894Z,1015.79
2023-02-27T01:43:50.866Z,1015.79
2023-02-27T01:44:50.825Z,1015.78
2023-02-27T01:45:50.934Z,1015.77
2023-02-27T01:46:50.862Z,1015.76
2023-02-27T01:47:50.820Z,1015.75
2023-02-27T01:48:50.802Z,1015.74
2023-02-27T01:49:50.804Z,1015.74
2023-02-27T01:50:50.792Z,1015.74
2023-02-27T01:51:50.765Z,1015.75
2023-02-27T01:52:50.771Z,1015.75
2023-02-27T01:53:50.762Z,1015.76
2023-02-27T01:54:50.777Z,1015.75
2023-02-27T01:55:50.745Z,1015.74
2023-02-27T01:56:50.742Z,1015.73
2023-02-27T01:57:50.734Z,1015.73
2023-02-27T01:58:50.700Z,1015.73
2023-02-27T01:59:50.698Z,1015.73
2023-02-27T02:00:50.729Z,1015.74
2023-02-27T02:01:50.710Z,1015.73
2023-02-27T02:02:50.671Z,1015.74
2023-02-27T02:03:50.646Z,1015.75
2023-02-27T02:04:50.640Z,1015.75
2023-02-27T02:05:50.629Z,1015.76
2023-02-27T02:06:50.648Z,1015.76
2023-02-27T02:07:50.617Z,1015.77
2023-02-27T02:08:50.616Z,1015.76
2023-02-27T02:09:50.609Z,1015.77
2023-02-27T02:10:50.567Z,1015.77
2023-02-27T02:11:50.572Z,1015.77
2023-02-27T02:12:50.567Z,1015.78
2023-02-27T02:13:50.552Z,1015.79
2023-02-27T02:14:50.543Z,1015.81
2023-02-27T02:15:50.596Z,1015.82
2023-02-27T02:16:50.557Z,1015.83
2023-02-27T02:17:50.527Z,1015.83
2023-02-27T02:18:50.522Z,1015.82
2023-02-27T02:19:50.506Z,1015.84
2023-02-27T02:20:50.496Z,1015.84
2023-02-27T02:21:50.526Z,1015.85
2023-02-27T02:22:50.456Z,1015.85
2023-02-27T02:23:50.461Z,1015.85
2023-02-27T02:24:50.430Z,1015.84
2023-02-27T02:25:50.497Z,1015.83
2023-02-27T02:26:50.416Z,1015.83
2023-02-27T02:27:50.428Z,1015.83
2023-02-27T02:28:50.400Z,1015.82
2023-02-27T02:29:50.398Z,1015.83
2023-02-27T02:30:50.491Z,1015.82
2023-02-27T02:31:50.544Z,1015.83
2023-02-27T02:32:50.357Z,1015.84
2023-02-27T02:33:50.352Z,1015.84
2023-02-27T02:34:50.350Z,1015.84
2023-02-27T02:35:50.334Z,1015.85
2023-02-27T02:36:50.310Z,1015.87
2023-02-27T02:37:50.318Z,1015.88
2023-02-27T02:38:50.330Z,1015.88
2023-02-27T02:39:50.319Z,1015.89
2023-02-27T02:40:50.267Z,1015.89
2023-02-27T02:41:50.262Z,1015.89
2023-02-27T02:42:52.366Z,1015.89
2023-02-27T02:43:50.239Z,1015.89
2023-02-27T02:44:50.254Z,1015.89
2023-02-27T02:45:50.266Z,1015.89
2023-02-27T02:46:50.216Z,1015.88
2023-02-27T02:47:50.231Z,1015.87
2023-02-27T02:48:50.181Z,1015.86
2023-02-27T02:49:50.203Z,1015.86
2023-02-27T02:50:50.185Z,1015.86
2023-02-27T02:51:50.169Z,1015.86
2023-02-27T02:52:50.141Z,1015.85
2023-02-27T02:53:50.160Z,1015.84
2023-02-27T02:54:50.123Z,1015.83
2023-02-27T02:55:50.124Z,1015.82
2023-02-27T02:56:50.137Z,1015.81
2023-02-27T02:57:50.103Z,1015.80
2023-02-27T02:58:50.080Z,1015.78
2023-02-27T02:59:50.098Z,1015.79
2023-02-27T03:00:50.098Z,1015.79
2023-02-27T03:01:50.162Z,1015.79
2023-02-27T03:02:50.054Z,1015.81
2023-02-27T03:03:50.047Z,1015.82
2023-02-27T03:04:50.031Z,1015.83
2023-02-27T03:05:50.035Z,1015.84
2023-02-27T03:06:50.043Z,1015.85
2023-02-27T03:07:50.076Z,1015.85
2023-02-27T03:08:50.022Z,1015.85
2023-02-27T03:09:50.006Z,1015.85
2023-02-27T03:10:49.971Z,1015.88
2023-02-27T03:11:50.844Z,1015.89
2023-02-27T03:12:49.960Z,1015.92
2023-02-27T03:13:49.960Z,1015.94
2023-02-27T03:14:49.932Z,1015.95
2023-02-27T03:15:49.939Z,1015.96
2023-02-27T03:16:49.904Z,1015.97
2023-02-27T03:17:49.926Z,1015.98
2023-02-27T03:18:49.912Z,1015.99
2023-02-27T03:19:49.899Z,1015.99
2023-02-27T03:20:49.881Z,1015.99
2023-02-27T03:21:49.883Z,1015.98
2023-02-27T03:22:49.852Z,1015.97
2023-02-27T03:23:49.868Z,1015.97
2023-02-27T03:24:49.884Z,1015.96
2023-02-27T03:25:49.823Z,1015.96
2023-02-27T03:26:49.822Z,1015.96
2023-02-27T03:27:49.838Z,1015.95
2023-02-27T03:28:49.792Z,1015.95
2023-02-27T03:29:49.781Z,1015.95
2023-02-27T03:30:49.864Z,1015.95
2023-02-27T03:31:49.918Z,1015.96
2023-02-27T03:32:49.754Z,1015.97
2023-02-27T03:33:49.785Z,1015.98
2023-02-27T03:34:49.728Z,1015.98
2023-02-27T03:35:49.730Z,1015.98
2023-02-27T03:36:49.707Z,1015.97
2023-02-27T03:37:49.717Z,1015.97
2023-02-27T03:38:49.711Z,1015.98
2023-02-27T03:39:49.702Z,1015.98
2023-02-27T03:40:49.656Z,1015.98
2023-02-27T03:41:49.667Z,1015.99
2023-02-27T03:42:49.685Z,1015.99
2023-02-27T03:43:49.654Z,1016.00
2023-02-27T03:44:52.143Z,1016.01
2023-02-27T03:45:49.627Z,1016.01
2023-02-27T03:46:49.611Z,1016.02
2023-02-27T03:47:49.626Z,1016.03
2023-02-27T03:48:49.603Z,1016.05
2023-02-27T03:49:49.590Z,1016.07
2023-02-27T03:50:49.580Z,1016.08
2023-02-27T03:51:49.599Z,1016.10
2023-02-27T03:52:49.543Z,1016.11
2023-02-27T03:53:49.540Z,1016.10
2023-02-27T03:54:49.516Z,1016.11
2023-02-27T03:55:49.544Z,1016.11
2023-02-27T03:56:49.496Z,1016.11
2023-02-27T03:57:49.502Z,1016.12
2023-02-27T03:58:49.520Z,1016.13
2023-02-27T03:59:49.491Z,1016.14
2023-02-27T04:00:49.495Z,1016.13
2023-02-27T04:01:49.502Z,1016.13
2023-02-27T04:02:49.524Z,1016.13
2023-02-27T04:03:49.437Z,1016.13
2023-02-27T04:04:49.528Z,1016.14
2023-02-27T04:05:49.461Z,1016.15
2023-02-27T04:06:49.445Z,1016.16
2023-02-27T04:07:49.419Z,1016.17
2023-02-27T04:08:49.385Z,1016.19
2023-02-27T04:09:49.357Z,1016.20
2023-02-27T04:10:49.376Z,1016.21
2023-02-27T04:11:49.390Z,1016.20
2023-02-27T04:12:49.361Z,1016.20
2023-02-27T04:13:49.356Z,1016.20
2023-02-27T04:14:49.322Z,1016.20
2023-02-27T04:15:49.431Z,1016.21
2023-02-27T04:16:49.308Z,1016.23
2023-02-27T04:17:49.278Z,1016.25
2023-02-27T04:18:49.306Z,1016.27
2023-02-27T04:19:49.305Z,1016.29
2023-02-27T04:20:49.281Z,1016.31
2023-02-27T04:21:49.250Z,1016.31
2023-02-27T04:22:49.274Z,1016.31
2023-02-27T04:23:49.271Z,1016.32
2023-02-27T04:24:49.231Z,1016.32
2023-02-27T04:25:49.228Z,1016.33
2023-02-27T04:26:49.206Z,1016.34
2023-02-27T04:27:49.192Z,1016.36
2023-02-27T04:28:49.203Z,1016.37
2023-02-27T04:29:49.168Z,1016.38
2023-02-27T04:30:49.222Z,1016.38
2023-02-27T04:31:49.313Z,1016.38
2023-02-27T04:32:49.208Z,1016.36
2023-02-27T04:33:49.123Z,1016.36
2023-02-27T04:34:49.292Z,1016.36
2023-02-27T04:35:49.115Z,1016.38
2023-02-27T04:36:49.114Z,1016.38
2023-02-27T04:37:49.166Z,1016.38
2023-02-27T04:38:49.100Z,1016.39
2023-02-27T04:39:49.082Z,1016.38
2023-02-27T04:40:49.067Z,1016.38
2023-02-27T04:41:49.061Z,1016.37
2023-02-27T04:42:49.043Z,1016.37
2023-02-27T04:43:49.052Z,1016.36
2023-02-27T04:44:49.036Z,1016.36
2023-02-27T04:45:49.129Z,1016.36
2023-02-27T04:46:49.017Z,1016.37
2023-02-27T04:47:49.024Z,1016.36
2023-02-27T04:48:48.996Z,1016.36
2023-02-27T04:49:49.004Z,1016.35
2023-02-27T04:50:49.009Z,1016.36
2023-02-27T04:51:48.987Z,1016.36
2023-02-27T04:52:48.962Z,1016.37
2023-02-27T04:53:49.024Z,1016.38
2023-02-27T04:54:48.958Z,1016.37
2023-02-27T04:55:48.912Z,1016.38
2023-02-27T04:56:48.943Z,1016.39
2023-02-27T04:57:48.910Z,1016.41
2023-02-27T04:58:48.881Z,1016.43
2023-02-27T04:59:48.946Z,1016.44
2023-02-27T05:00:48.882Z,1016.45
2023-02-27T05:01:48.984Z,1016.47
2023-02-27T05:02:48.899Z,1016.48
2023-02-27T05:03:48.840Z,1016.48
2023-02-27T05:04:48.830Z,1016.49
2023-02-27T05:05:48.872Z,1016.49
2023-02-27T05:06:48.814Z,1016.48
2023-02-27T05:07:48.782Z,1016.48
2023-02-27T05:08:48.862Z,1016.49
2023-02-27T05:09:48.753Z,1016.51
2023-02-27T05:10:48.771Z,1016.53
2023-02-27T05:11:48.794Z,1016.56
2023-02-27T05:12:48.797Z,1016.56
2023-02-27T05:13:48.752Z,1016.58
2023-02-27T05:14:48.771Z,1016.59
2023-02-27T05:15:48.719Z,1016.60
2023-02-27T05:16:48.763Z,1016.61
2023-02-27T05:17:48.765Z,1016.61
2023-02-27T05:18:48.683Z,1016.61
2023-02-27T05:19:48.697Z,1016.61
2023-02-27T05:20:48.738Z,1016.60
2023-02-27T05:21:48.649Z,1016.60
2023-02-27T05:22:49.294Z,1016.61
2023-02-27T05:23:48.670Z,1016.61
2023-02-27T05:24:48.643Z,1016.61
2023-02-27T05:25:48.597Z,1016.63
2023-02-27T05:26:48.615Z,1016.64
2023-02-27T05:27:48.607Z,1016.66
2023-02-27T05:28:48.580Z,1016.68
2023-02-27T05:29:48.596Z,1016.68
2023-02-27T05:30:48.616Z,1016.68
2023-02-27T05:31:48.711Z,1016.69
2023-02-27T05:32:48.553Z,1016.69
2023-02-27T05:33:48.523Z,1016.71
2023-02-27T05:34:48.557Z,1016.72
2023-02-27T05:35:48.516Z,1016.73
2023-02-27T05:36:48.497Z,1016.73
2023-02-27T05:37:48.531Z,1016.72
2023-02-27T05:38:48.484Z,1016.70
2023-02-27T05:39:48.505Z,1016.69
2023-02-27T05:40:48.488Z,1016.68
2023-02-27T05:41:48.428Z,1016.68
2023-02-27T05:42:48.468Z,1016.68
2023-02-27T05:43:48.429Z,1016.69
2023-02-27T05:44:48.467Z,1016.70
2023-02-27T05:45:48.459Z,1016.70
2023-02-27T05:46:48.389Z,1016.71
2023-02-27T05:47:48.367Z,1016.70
2023-02-27T05:48:48.473Z,1016.71
2023-02-27T05:49:48.371Z,1016.70
2023-02-27T05:50:48.333Z,1016.73
2023-02-27T05:51:48.453Z,1016.72
2023-02-27T05:52:48.292Z,1016.73
2023-02-27T05:53:48.258Z,1016.75
2023-02-27T05:54:48.371Z,1016.73
2023-02-27T05:55:48.238Z,1016.73
2023-02-27T05:56:48.248Z,1016.71
2023-02-27T05:57:48.227Z,1016.72
2023-02-27T05:58:48.271Z,1016.73
2023-02-27T05:59:48.218Z,1016.74
2023-02-27T06:00:48.290Z,1016.77
2023-02-27T06:01:48.179Z,1016.78
2023-02-27T06:02:48.181Z,1016.81
2023-02-27T06:03:48.179Z,1016.82
2023-02-27T06:04:48.179Z,1016.82
2023-02-27T06:05:48.165Z,1016.83
2023-02-27T06:06:48.179Z,1016.84
2023-02-27T06:07:48.209Z,1016.85
2023-02-27T06:08:48.124Z,1016.87
2023-02-27T06:09:48.103Z,1016.87
2023-02-27T06:10:48.139Z,1016.88
2023-02-27T06:11:48.116Z,1016.89
2023-02-27T06:12:48.082Z,1016.88
2023-02-27T06:13:48.176Z,1016.88
2023-02-27T06:14:48.069Z,1016.89
2023-02-27T06:15:48.046Z,1016.89
2023-02-27T06:16:48.085Z,1016.89
2023-02-27T06:17:48.028Z,1016.89
2023-02-27T06:18:48.032Z,1016.89
2023-02-27T06:19:48.084Z,1016.90
2023-02-27T06:20:48.015Z,1016.91
2023-02-27T06:21:48.022Z,1016.92
2023-02-27T06:22:48.004Z,1016.93
2023-02-27T06:23:47.964Z,1016.94
2023-02-27T06:24:48.001Z,1016.95
2023-02-27T06:25:47.941Z,1016.95
2023-02-27T06:26:47.998Z,1016.95
2023-02-27T06:27:47.950Z,1016.95
2023-02-27T06:28:47.933Z,1016.96
2023-02-27T06:29:47.913Z,1016.96
2023-02-27T06:30:47.968Z,1016.96
2023-02-27T06:31:48.066Z,1016.97
2023-02-27T06:32:47.906Z,1016.98
2023-02-27T06:33:47.931Z,1016.99
2023-02-27T06:34:47.865Z,1017.00
2023-02-27T06:35:47.914Z,1017.03
2023-02-27T06:36:47.843Z,1017.03
2023-02-27T06:37:47.836Z,1017.05
2023-02-27T06:38:47.828Z,1017.05
2023-02-27T06:39:47.830Z,1017.06
2023-02-27T06:40:47.822Z,1017.07
2023-02-27T06:41:47.778Z,1017.06
2023-02-27T06:42:47.797Z,1017.06
2023-02-27T06:43:47.791Z,1017.06
2023-02-27T06:44:47.761Z,1017.06
2023-02-27T06:45:47.786Z,1017.07
2023-02-27T06:46:47.739Z,1017.07
2023-02-27T06:47:47.747Z,1017.07
2023-02-27T06:48:47.727Z,1017.08
2023-02-27T06:49:47.714Z,1017.09
2023-02-27T06:50:47.725Z,1017.08
2023-02-27T06:51:47.686Z,1017.09
2023-02-27T06:52:47.701Z,1017.10
2023-02-27T06:53:47.671Z,1017.10
2023-02-27T06:54:47.692Z,1017.12
2023-02-27T06:55:47.650Z,1017.13
2023-02-27T06:56:47.647Z,1017.14
2023-02-27T06:57:47.639Z,1017.17
2023-02-27T06:58:47.670Z,1017.18
2023-02-27T06:59:47.611Z,1017.20
2023-02-27T07:00:47.629Z,1017.22
2023-02-27T07:01:47.665Z,1017.24
2023-02-27T07:02:47.583Z,1017.27
2023-02-27T07:03:47.559Z,1017.28
2023-02-27T07:04:47.631Z,1017.30
2023-02-27T07:05:47.546Z,1017.31
2023-02-27T07:07:35.029Z,1017.31
2023-02-27T07:07:47.545Z,1017.32
2023-02-27T07:09:02.085Z,1017.32
2023-02-27T07:09:47.502Z,1017.34
2023-02-27T07:10:47.507Z,1017.35
2023-02-27T07:11:47.488Z,1017.36
2023-02-27T07:12:47.492Z,1017.37
2023-02-27T07:13:47.510Z,1017.39
2023-02-27T07:14:47.454Z,1017.40
2023-02-27T07:15:47.501Z,1017.40
2023-02-27T07:16:47.494Z,1017.41
2023-02-27T07:17:47.424Z,1017.41
2023-02-27T07:18:47.453Z,1017.42
2023-02-27T07:19:47.443Z,1017.43
2023-02-27T07:20:47.405Z,1017.44
2023-02-27T07:21:47.375Z,1017.45
2023-02-27T07:22:47.416Z,1017.44
2023-02-27T07:23:47.349Z,1017.46
2023-02-27T07:24:47.415Z,1017.46
2023-02-27T07:25:47.329Z,1017.47
2023-02-27T07:26:47.325Z,1017.49
2023-02-27T07:27:47.410Z,1017.51
2023-02-27T07:28:47.318Z,1017.52
2023-02-27T07:29:47.322Z,1017.53
2023-02-27T07:30:47.361Z,1017.53
2023-02-27T07:31:47.296Z,1017.54
2023-02-27T07:32:47.305Z,1017.53
2023-02-27T07:33:47.249Z,1017.53
2023-02-27T07:34:47.285Z,1017.53
2023-02-27T07:35:47.456Z,1017.54
2023-02-27T07:36:47.249Z,1017.55
2023-02-27T07:37:47.248Z,1017.56
2023-02-27T07:38:47.263Z,1017.57
2023-02-27T07:39:47.229Z,1017.59
2023-02-27T07:40:47.197Z,1017.61
2023-02-27T07:41:47.243Z,1017.62
2023-02-27T07:42:47.188Z,1017.62
2023-02-27T07:43:47.180Z,1017.62
2023-02-27T07:44:47.235Z,1017.62
2023-02-27T07:45:47.141Z,1017.61
2023-02-27T07:46:47.184Z,1017.61
2023-02-27T07:47:47.238Z,1017.61
2023-02-27T07:48:47.142Z,1017.62
2023-02-27T07:49:47.101Z,1017.64
2023-02-27T07:50:47.111Z,1017.65
2023-02-27T07:51:47.092Z,1017.67
2023-02-27T07:52:47.102Z,1017.67
2023-02-27T07:53:47.060Z,1017.68
2023-02-27T07:54:47.076Z,1017.68
2023-02-27T07:55:47.067Z,1017.69
2023-02-27T07:56:47.055Z,1017.68
2023-02-27T07:57:47.060Z,1017.68
2023-02-27T07:58:47.020Z,1017.67
2023-02-27T07:59:47.014Z,1017.65
2023-02-27T08:00:47.024Z,1017.65
2023-02-27T08:01:47.017Z,1017.66
2023-02-27T08:02:47.036Z,1017.65
2023-02-27T08:03:47.001Z,1017.67
2023-02-27T08:04:47.007Z,1017.66
2023-02-27T08:05:46.943Z,1017.67
2023-02-27T08:06:46.968Z,1017.68
2023-02-27T08:07:46.942Z,1017.69
2023-02-27T08:08:46.948Z,1017.69
2023-02-27T08:09:46.966Z,1017.69
2023-02-27T08:10:46.913Z,1017.70
2023-02-27T08:11:48.994Z,1017.71
2023-02-27T08:12:46.958Z,1017.71
2023-02-27T08:14:02.930Z,1017.69
2023-02-27T08:14:46.863Z,1017.69
2023-02-27T08:15:46.923Z,1017.68
2023-02-27T08:16:46.840Z,1017.68
2023-02-27T08:17:46.856Z,1017.68
2023-02-27T08:18:46.844Z,1017.69
2023-02-27T08:19:46.830Z,1017.71
2023-02-27T08:20:46.790Z,1017.72
2023-02-27T08:21:46.795Z,1017.73
2023-02-27T08:22:46.794Z,1017.72
2023-02-27T08:23:46.811Z,1017.72
2023-02-27T08:24:46.751Z,1017.71
2023-02-27T08:25:46.793Z,1017.72
2023-02-27T08:26:46.754Z,1017.70
2023-02-27T08:27:46.741Z,1017.69
2023-02-27T08:28:46.723Z,1017.70
2023-02-27T08:29:46.741Z,1017.70
2023-02-27T08:30:46.690Z,1017.71
2023-02-27T08:31:46.865Z,1017.71
2023-02-27T08:32:46.678Z,1017.70
2023-02-27T08:33:46.678Z,1017.68
2023-02-27T08:34:46.664Z,1017.68
2023-02-27T08:35:46.687Z,1017.69
2023-02-27T08:36:46.633Z,1017.73
2023-02-27T08:37:46.653Z,1017.70
2023-02-27T08:38:46.603Z,1017.69
2023-02-27T08:39:46.633Z,1017.73
2023-02-27T08:40:46.633Z,1017.73
2023-02-27T08:41:46.601Z,1017.74
2023-02-27T08:42:46.582Z,1017.77
2023-02-27T08:43:46.595Z,1017.77
2023-02-27T08:44:46.559Z,1017.77
2023-02-27T08:45:46.583Z,1017.80
2023-02-27T08:46:46.531Z,1017.79
2023-02-27T08:47:46.541Z,1017.79
2023-02-27T08:48:46.505Z,1017.82
2023-02-27T08:49:46.522Z,1017.81
2023-02-27T08:50:46.557Z,1017.83
2023-02-27T08:51:46.488Z,1017.87
2023-02-27T08:52:46.485Z,1017.84
2023-02-27T08:53:46.474Z,1017.84
2023-02-27T08:54:46.476Z,1017.85
2023-02-27T08:55:46.474Z,1017.85
2023-02-27T08:56:46.436Z,1017.81
2023-02-27T08:57:46.438Z,1017.79
2023-02-27T08:58:46.433Z,1017.81
2023-02-27T08:59:46.489Z,1017.81
2023-02-27T09:00:46.486Z,1017.79
2023-02-27T09:01:46.422Z,1017.80
2023-02-27T09:02:46.404Z,1017.82
2023-02-27T09:03:46.386Z,1017.81
2023-02-27T09:04:46.355Z,1017.79
2023-02-27T09:05:46.360Z,1017.78
2023-02-27T09:06:46.354Z,1017.76
2023-02-27T09:07:46.330Z,1017.76
2023-02-27T09:08:46.370Z,1017.75
2023-02-27T09:09:48.020Z,1017.77
2023-02-27T09:10:46.300Z,1017.79
2023-02-27T09:11:46.334Z,1017.80
2023-02-27T09:12:46.267Z,1017.83
2023-02-27T09:13:46.296Z,1017.86
2023-02-27T09:14:46.269Z,1017.86
2023-02-27T09:15:46.293Z,1017.88
2023-02-27T09:16:46.284Z,1017.86
2023-02-27T09:17:46.237Z,1017.88
2023-02-27T09:18:46.221Z,1017.89
2023-02-27T09:19:46.208Z,1017.89
2023-02-27T09:20:46.197Z,1017.91
2023-02-27T09:21:46.200Z,1017.90
2023-02-27T09:22:46.172Z,1017.91
2023-02-27T09:23:46.272Z,1017.92
2023-02-27T09:24:46.156Z,1017.93
2023-02-27T09:25:46.195Z,1017.95
2023-02-27T09:26:46.769Z,1017.98
2023-02-27T09:27:46.140Z,1017.96
2023-02-27T09:28:46.146Z,1017.95
2023-02-27T09:29:46.114Z,1017.94
2023-02-27T09:30:46.102Z,1017.92
2023-02-27T09:31:46.268Z,1017.93
2023-02-27T09:32:46.184Z,1017.96
2023-02-27T09:33:46.114Z,1017.93
2023-02-27T09:34:46.057Z,1017.95
2023-02-27T09:35:46.078Z,1017.94
2023-02-27T09:36:46.030Z,1017.94
2023-02-27T09:37:46.053Z,1017.96
2023-02-27T09:38:46.035Z,1017.95
2023-02-27T09:39:46.379Z,1017.96
2023-02-27T09:40:46.009Z,1017.96
2023-02-27T09:41:45.998Z,1017.96
2023-02-27T09:42:45.997Z,1017.96
2023-02-27T09:43:45.970Z,1017.90
2023-02-27T09:44:47.439Z,1017.91
2023-02-27T09:45:46.004Z,1017.89
2023-02-27T09:46:45.936Z,1017.85
2023-02-27T09:47:45.952Z,1017.83
2023-02-27T09:48:45.953Z,1017.84
2023-02-27T09:49:45.947Z,1017.88
2023-02-27T09:50:45.899Z,1017.88
2023-02-27T09:51:45.892Z,1017.86
2023-02-27T09:52:45.907Z,1017.83
2023-02-27T09:53:45.888Z,1017.84
2023-02-27T09:54:45.861Z,1017.82
2023-02-27T09:55:45.875Z,1017.84
2023-02-27T09:56:45.845Z,1017.85
2023-02-27T09:57:45.840Z,1017.85
2023-02-27T09:58:45.870Z,1017.85
2023-02-27T09:59:45.818Z,1017.86
2023-02-27T10:00:45.816Z,1017.89
2023-02-27T10:01:45.805Z,1017.89
2023-02-27T10:02:45.778Z,1017.88
2023-02-27T10:03:45.824Z,1017.88
2023-02-27T10:04:45.788Z,1017.87
2023-02-27T10:05:45.762Z,1017.91
2023-02-27T10:06:45.752Z,1017.88
2023-02-27T10:07:45.754Z,1017.90
2023-02-27T10:08:45.783Z,1017.88
2023-02-27T10:09:45.750Z,1017.86
2023-02-27T10:10:45.755Z,1017.87
2023-02-27T10:11:45.747Z,1017.87
2023-02-27T10:12:45.727Z,1017.88
2023-02-27T10:13:45.753Z,1017.86
2023-02-27T10:14:45.718Z,1017.84
2023-02-27T10:15:45.666Z,1017.85
2023-02-27T10:16:45.751Z,1017.87
2023-02-27T10:17:45.711Z,1017.86
2023-02-27T10:18:45.634Z,1017.85
2023-02-27T10:19:45.649Z,1017.84
2023-02-27T10:20:45.619Z,1017.82
2023-02-27T10:21:45.604Z,1017.80
2023-02-27T10:22:45.616Z,1017.80
2023-02-27T10:23:45.607Z,1017.80
2023-02-27T10:24:45.572Z,1017.81
2023-02-27T10:25:45.616Z,1017.83
2023-02-27T10:26:45.565Z,1017.81
2023-02-27T10:27:45.550Z,1017.81
2023-02-27T10:28:45.563Z,1017.80
2023-02-27T10:29:45.530Z,1017.79
2023-02-27T10:30:45.553Z,1017.78
2023-02-27T10:31:45.588Z,1017.76
2023-02-27T10:32:45.468Z,1017.78
2023-02-27T10:33:45.494Z,1017.80
2023-02-27T10:34:45.517Z,1017.79
2023-02-27T10:35:45.529Z,1017.79
2023-02-27T10:36:45.454Z,1017.78
2023-02-27T10:37:45.474Z,1017.77
2023-02-27T10:38:45.456Z,1017.80
2023-02-27T10:39:45.422Z,1017.80
2023-02-27T10:40:45.465Z,1017.79
2023-02-27T10:41:45.438Z,1017.81
2023-02-27T10:42:45.398Z,1017.83
2023-02-27T10:43:45.381Z,1017.83
2023-02-27T10:44:45.382Z,1017.82
2023-02-27T10:45:45.377Z,1017.80
2023-02-27T10:46:45.428Z,1017.80
2023-02-27T10:47:45.369Z,1017.76
2023-02-27T10:48:45.336Z,1017.80
2023-02-27T10:49:45.333Z,1017.79
2023-02-27T10:50:45.318Z,1017.76
2023-02-27T10:51:45.299Z,1017.80
2023-02-27T10:52:45.300Z,1017.76
2023-02-27T10:53:45.280Z,1017.74
2023-02-27T10:54:45.252Z,1017.73
2023-02-27T10:55:45.364Z,1017.70
2023-02-27T10:56:45.221Z,1017.69
2023-02-27T10:57:45.259Z,1017.66
2023-02-27T10:58:45.243Z,1017.65
2023-02-27T10:59:45.217Z,1017.67
2023-02-27T11:00:45.196Z,1017.69
2023-02-27T11:01:45.284Z,1017.64
2023-02-27T11:02:45.189Z,1017.61
2023-02-27T11:03:45.188Z,1017.62
2023-02-27T11:04:45.231Z,1017.66
2023-02-27T11:05:45.198Z,1017.62
2023-02-27T11:06:45.138Z,1017.60
2023-02-27T11:07:45.146Z,1017.57
2023-02-27T11:08:45.136Z,1017.54
2023-02-27T11:09:45.108Z,1017.58
2023-02-27T11:10:45.079Z,1017.59
2023-02-27T11:11:45.131Z,1017.58
2023-02-27T11:12:45.061Z,1017.58
2023-02-27T11:13:45.092Z,1017.56
2023-02-27T11:14:45.061Z,1017.55
2023-02-27T11:15:45.110Z,1017.59
2023-02-27T11:16:45.038Z,1017.61
2023-02-27T11:17:45.118Z,1017.60
2023-02-27T11:18:45.021Z,1017.62
2023-02-27T11:19:45.006Z,1017.59
2023-02-27T11:20:45.012Z,1017.59
2023-02-27T11:21:44.987Z,1017.66
2023-02-27T11:22:44.991Z,1017.54
2023-02-27T11:23:44.970Z,1017.54
2023-02-27T11:24:44.941Z,1017.53
2023-02-27T11:25:44.954Z,1017.52
2023-02-27T11:26:44.966Z,1017.61
2023-02-27T11:27:45.047Z,1017.57
2023-02-27T11:28:44.948Z,1017.55
2023-02-27T11:29:44.925Z,1017.53
2023-02-27T11:30:44.955Z,1017.52
2023-02-27T11:31:45.046Z,1017.47
2023-02-27T11:32:44.952Z,1017.51
2023-02-27T11:33:44.871Z,1017.43
2023-02-27T11:34:44.880Z,1017.46
2023-02-27T11:35:44.858Z,1017.47
2023-02-27T11:36:44.838Z,1017.46
2023-02-27T11:37:44.839Z,1017.45
2023-02-27T11:38:44.835Z,1017.46
2023-02-27T11:39:44.816Z,1017.44
2023-02-27T11:40:44.782Z,1017.46
2023-02-27T11:41:44.898Z,1017.48
2023-02-27T11:42:44.781Z,1017.46
2023-02-27T11:43:44.767Z,1017.45
2023-02-27T11:44:50.750Z,1017.45
2023-02-27T11:46:13.631Z,1017.41
2023-02-27T11:46:48.966Z,1017.40
2023-02-27T11:47:44.733Z,1017.43
2023-02-27T11:48:44.700Z,1017.42
2023-02-27T11:49:44.717Z,1017.42
2023-02-27T11:50:44.697Z,1017.41
2023-02-27T11:51:44.723Z,1017.44
2023-02-27T11:52:44.671Z,1017.42
2023-02-27T11:53:44.689Z,1017.43
2023-02-27T11:54:44.640Z,1017.40
2023-02-27T11:55:44.646Z,1017.41
2023-02-27T11:56:44.637Z,1017.44
2023-02-27T11:57:44.625Z,1017.45
2023-02-27T11:58:44.610Z,1017.43
2023-02-27T11:59:44.622Z,1017.40
2023-02-27T12:00:44.604Z,1017.42
2023-02-27T12:01:44.603Z,1017.42
2023-02-27T12:02:44.614Z,1017.44
2023-02-27T12:03:44.592Z,1017.47
2023-02-27T12:04:44.586Z,1017.43
2023-02-27T12:05:44.560Z,1017.44